createdAt,value
2022-11-21T00:01:21.278Z,57.08
2022-11-21T00:04:27.344Z,56.90
2022-11-21T00:07:32.897Z,56.48
2022-11-21T00:10:39.018Z,56.54
2022-11-21T00:13:49.581Z,56.34
2022-11-21T00:16:58.202Z,55.79
2022-11-21T00:20:04.591Z,56.04
2022-11-21T00:23:16.988Z,55.72
2022-11-21T00:26:25.388Z,55.59
2022-11-21T00:29:30.759Z,55.29
2022-11-21T00:32:36.171Z,55.86
2022-11-21T00:35:41.537Z,55.11
2022-11-21T00:38:46.264Z,54.82
2022-11-21T00:41:52.687Z,54.43
2022-11-21T00:44:56.476Z,53.91
2022-11-21T00:48:00.597Z,53.97
2022-11-21T00:51:04.437Z,53.72
2022-11-21T00:54:08.073Z,53.00
2022-11-21T00:57:12.349Z,52.91
2022-11-21T01:00:16.461Z,52.48
2022-11-21T01:03:20.226Z,52.22
2022-11-21T01:06:24.573Z,52.56
2022-11-21T01:09:29.144Z,54.23
2022-11-21T01:12:33.514Z,54.37
2022-11-21T01:15:36.898Z,53.25
2022-11-21T01:18:41.631Z,53.44
2022-11-21T01:21:45.605Z,53.47
2022-11-21T01:24:49.726Z,53.70
2022-11-21T01:27:53.299Z,53.85
2022-11-21T01:30:56.961Z,53.62
2022-11-21T01:34:02.256Z,53.28
2022-11-21T01:37:06.417Z,52.87
2022-11-21T01:40:10.759Z,52.64
2022-11-21T01:43:17.664Z,52.77
2022-11-21T01:46:23.569Z,53.03
2022-11-21T01:49:33.342Z,53.05
2022-11-21T01:52:37.322Z,52.65
2022-11-21T01:55:40.958Z,53.03
2022-11-21T01:58:47.338Z,52.83
2022-11-21T02:01:53.417Z,52.17
2022-11-21T02:04:57.891Z,52.12
2022-11-21T02:08:06.796Z,51.21
2022-11-21T02:11:18.152Z,51.14
2022-11-21T02:14:21.517Z,51.31
2022-11-21T02:17:27.853Z,51.76
2022-11-21T02:20:31.770Z,51.68
2022-11-21T02:24:00.643Z,51.59
2022-11-21T02:27:04.853Z,51.13
2022-11-21T02:30:11.058Z,51.40
2022-11-21T02:33:14.983Z,51.32
2022-11-21T02:36:42.958Z,50.87
2022-11-21T02:39:48.241Z,50.53
2022-11-21T02:43:07.542Z,50.27
2022-11-21T02:46:11.481Z,49.90
2022-11-21T02:49:18.103Z,49.46
2022-11-21T02:52:21.393Z,49.40
2022-11-21T02:55:26.159Z,49.75
2022-11-21T02:58:29.421Z,49.69
2022-11-21T03:01:32.728Z,49.43
2022-11-21T03:04:36.553Z,48.94
2022-11-21T03:07:40.159Z,48.65
2022-11-21T03:10:43.818Z,48.47
2022-11-21T03:13:47.194Z,49.21
2022-11-21T03:16:50.742Z,49.13
2022-11-21T03:19:54.456Z,49.24
2022-11-21T03:22:58.167Z,48.84
2022-11-21T03:26:02.124Z,49.24
2022-11-21T03:29:05.118Z,49.16
2022-11-21T03:32:09.128Z,49.54
2022-11-21T03:35:12.616Z,49.45
2022-11-21T03:38:16.883Z,49.54
2022-11-21T03:41:32.525Z,50.05
2022-11-21T03:44:36.572Z,50.45
2022-11-21T03:47:41.754Z,50.20
2022-11-21T03:50:47.448Z,50.53
2022-11-21T03:53:51.709Z,51.39
2022-11-21T03:56:55.390Z,51.13
2022-11-21T03:59:59.088Z,51.03
2022-11-21T04:03:03.525Z,50.82
2022-11-21T04:06:08.044Z,51.02
2022-11-21T04:09:13.738Z,50.65
2022-11-21T04:12:18.344Z,50.16
2022-11-21T04:15:32.180Z,50.29
2022-11-21T04:18:44.494Z,50.35
2022-11-21T04:21:58.554Z,49.66
2022-11-21T04:25:05.764Z,49.98
2022-11-21T04:28:15.191Z,50.99
2022-11-21T04:31:19.367Z,50.86
2022-11-21T04:34:22.896Z,50.96
2022-11-21T04:37:26.142Z,50.08
2022-11-21T04:40:29.036Z,48.64
2022-11-21T04:43:32.018Z,47.59
2022-11-21T04:46:34.960Z,47.83
2022-11-21T04:49:38.187Z,46.86
2022-11-21T04:52:43.195Z,46.40
2022-11-21T04:55:46.710Z,44.99
2022-11-21T04:58:53.833Z,44.44
2022-11-21T05:01:56.959Z,44.29
2022-11-21T05:05:01.479Z,44.55
2022-11-21T05:08:05.226Z,45.01
2022-11-21T05:11:27.139Z,45.35
2022-11-21T05:14:30.643Z,45.60
2022-11-21T05:17:34.621Z,45.61
2022-11-21T05:20:38.139Z,45.56
2022-11-21T05:23:41.628Z,45.48
2022-11-21T05:26:44.692Z,45.14
2022-11-21T05:29:48.643Z,45.93
2022-11-21T05:32:52.153Z,46.64
2022-11-21T05:35:55.967Z,47.61
2022-11-21T05:38:59.659Z,47.05
2022-11-21T05:42:03.441Z,47.29
2022-11-21T05:45:07.247Z,47.35
2022-11-21T05:48:11.128Z,47.23
2022-11-21T05:51:14.862Z,46.82
2022-11-21T05:54:18.498Z,46.43
2022-11-21T05:57:22.189Z,45.82
2022-11-21T06:00:25.633Z,45.31
2022-11-21T06:03:33.069Z,45.09
2022-11-21T06:06:37.970Z,44.84
2022-11-21T06:09:41.719Z,44.71
2022-11-21T06:12:44.865Z,44.64
2022-11-21T06:15:59.967Z,44.46
2022-11-21T06:19:04.046Z,44.48
2022-11-21T06:22:07.831Z,44.95
2022-11-21T06:25:11.662Z,44.81
2022-11-21T06:28:14.944Z,44.89
2022-11-21T06:31:27.279Z,44.65
2022-11-21T06:34:31.028Z,44.05
2022-11-21T06:37:34.430Z,43.82
2022-11-21T06:40:37.834Z,43.79
2022-11-21T06:43:41.878Z,43.75
2022-11-21T06:46:51.429Z,43.41
2022-11-21T06:49:55.569Z,43.23
2022-11-21T06:52:59.852Z,43.09
2022-11-21T06:56:04.963Z,42.98
2022-11-21T06:59:08.159Z,43.04
2022-11-21T07:02:15.268Z,43.25
2022-11-21T07:05:18.641Z,43.40
2022-11-21T07:08:22.389Z,43.34
2022-11-21T07:11:26.495Z,43.27
2022-11-21T07:14:30.487Z,43.10
2022-11-21T07:17:34.634Z,43.36
2022-11-21T07:20:38.877Z,43.31
2022-11-21T07:23:42.783Z,43.38
2022-11-21T07:26:46.132Z,43.24
2022-11-21T07:29:50.341Z,42.97
2022-11-21T07:33:01.732Z,42.94
2022-11-21T07:36:06.050Z,43.19
2022-11-21T07:39:10.532Z,43.07
2022-11-21T07:42:13.917Z,43.06
2022-11-21T07:45:18.439Z,43.16
2022-11-21T07:48:21.838Z,43.65
2022-11-21T07:51:26.357Z,43.61
2022-11-21T07:54:29.782Z,44.15
2022-11-21T07:57:34.013Z,44.47
2022-11-21T08:00:40.301Z,44.85
2022-11-21T08:03:44.911Z,45.29
2022-11-21T08:06:48.390Z,45.80
2022-11-21T08:09:52.339Z,46.51
2022-11-21T08:12:55.407Z,46.89
2022-11-21T08:16:00.227Z,47.57
2022-11-21T08:19:05.173Z,48.11
2022-11-21T08:22:09.454Z,48.59
2022-11-21T08:25:13.274Z,49.58
2022-11-21T08:28:17.386Z,50.67
2022-11-21T08:31:22.094Z,51.47
2022-11-21T08:34:27.080Z,52.31
2022-11-21T08:37:32.003Z,52.54
2022-11-21T08:40:37.912Z,53.34
2022-11-21T08:43:42.047Z,55.40
2022-11-21T08:46:45.841Z,55.49
2022-11-21T08:49:50.973Z,55.12
2022-11-21T08:53:02.424Z,55.54
2022-11-21T08:56:07.153Z,55.54
2022-11-21T08:59:12.651Z,55.51
2022-11-21T09:02:20.027Z,55.50
2022-11-21T09:05:24.887Z,55.57
2022-11-21T09:08:32.944Z,55.47
2022-11-21T09:11:38.926Z,55.55
2022-11-21T09:15:00.638Z,55.93
2022-11-21T09:18:09.035Z,56.53
2022-11-21T09:21:16.992Z,57.00
2022-11-21T09:24:21.341Z,56.92
2022-11-21T09:27:25.144Z,56.73
2022-11-21T09:30:28.517Z,56.96
2022-11-21T09:33:31.931Z,57.41
2022-11-21T09:36:35.216Z,58.31
2022-11-21T09:39:38.209Z,58.35
2022-11-21T09:42:54.003Z,58.59
2022-11-21T09:46:27.097Z,58.80
2022-11-21T09:49:33.308Z,59.22
2022-11-21T09:52:57.405Z,59.47
2022-11-21T09:56:02.503Z,59.73
2022-11-21T09:59:14.621Z,59.69
2022-11-21T10:02:21.392Z,59.73
2022-11-21T10:05:44.926Z,59.51
2022-11-21T10:09:06.610Z,59.63
2022-11-21T10:12:38.244Z,59.37
2022-11-21T10:16:16.339Z,59.46
2022-11-21T10:19:32.360Z,59.42
2022-11-21T10:22:56.831Z,60.38
2022-11-21T10:26:20.364Z,60.09
2022-11-21T10:29:37.018Z,60.12
2022-11-21T10:32:47.505Z,60.47
2022-11-21T10:35:56.096Z,60.35
2022-11-21T10:39:11.058Z,60.57
2022-11-21T10:42:14.067Z,61.73
2022-11-21T10:45:19.484Z,61.69
2022-11-21T10:48:22.825Z,62.17
2022-11-21T10:51:34.071Z,62.10
2022-11-21T10:55:08.808Z,62.29
2022-11-21T10:58:20.554Z,63.61
2022-11-21T11:01:31.301Z,62.83
2022-11-21T11:04:45.824Z,62.83
2022-11-21T11:08:14.244Z,62.44
2022-11-21T11:11:22.494Z,62.45
2022-11-21T11:14:30.901Z,62.47
2022-11-21T11:17:35.525Z,62.67
2022-11-21T11:20:41.051Z,62.38
2022-11-21T11:23:45.507Z,62.53
2022-11-21T11:26:49.090Z,62.47
2022-11-21T11:29:53.537Z,62.51
2022-11-21T11:32:56.948Z,62.46
2022-11-21T11:36:15.330Z,62.75
2022-11-21T11:39:36.957Z,62.94
2022-11-21T11:43:17.069Z,62.62
2022-11-21T11:47:01.125Z,62.53
2022-11-21T11:50:12.164Z,63.39
2022-11-21T11:53:22.128Z,62.88
2022-11-21T11:56:33.758Z,62.70
2022-11-21T11:59:42.257Z,62.75
2022-11-21T12:03:21.975Z,62.40
2022-11-21T12:06:46.821Z,63.21
2022-11-21T12:10:08.446Z,61.28
2022-11-21T12:13:17.130Z,60.96
2022-11-21T12:16:22.782Z,61.32
2022-11-21T12:19:27.518Z,60.90
2022-11-21T12:22:31.288Z,60.73
2022-11-21T12:26:21.850Z,60.97
2022-11-21T12:29:57.138Z,60.39
2022-11-21T12:33:12.103Z,60.83
2022-11-21T12:36:24.892Z,64.16
2022-11-21T12:39:43.722Z,61.97
2022-11-21T12:43:32.504Z,61.71
2022-11-21T12:47:07.273Z,61.32
2022-11-21T12:50:49.978Z,61.11
2022-11-21T12:54:31.095Z,61.60
2022-11-21T12:57:40.478Z,64.21
2022-11-21T13:01:34.942Z,65.93
2022-11-21T13:04:41.672Z,64.74
2022-11-21T13:07:46.377Z,65.50
2022-11-21T13:11:35.948Z,65.03
2022-11-21T13:14:45.193Z,65.91
2022-11-21T13:18:03.181Z,64.19
2022-11-21T13:21:06.178Z,64.26
2022-11-21T13:24:10.441Z,62.97
2022-11-21T13:27:38.950Z,62.13
2022-11-21T13:30:52.907Z,63.63
2022-11-21T13:33:57.205Z,61.71
2022-11-21T13:37:01.287Z,61.38
2022-11-21T13:40:27.530Z,60.61
2022-11-21T13:43:33.667Z,60.56
2022-11-21T13:47:04.051Z,60.49
2022-11-21T13:50:53.112Z,60.94
2022-11-21T13:54:21.940Z,60.07
2022-11-21T13:57:54.133Z,62.93
2022-11-21T14:01:17.825Z,61.70
2022-11-21T14:04:30.097Z,62.19
2022-11-21T14:07:37.063Z,62.12
2022-11-21T14:10:43.644Z,63.25
2022-11-21T14:13:49.564Z,61.95
2022-11-21T14:17:18.710Z,61.51
2022-11-21T14:20:29.346Z,62.91
2022-11-21T14:23:35.795Z,61.82
2022-11-21T14:26:47.294Z,61.56
2022-11-21T14:29:50.431Z,60.28
2022-11-21T14:32:54.718Z,60.87
2022-11-21T14:36:01.132Z,60.16
2022-11-21T14:42:37.873Z,59.31
2022-11-21T14:45:49.857Z,58.95
2022-11-21T14:48:54.258Z,58.34
2022-11-21T14:52:07.323Z,59.18
2022-11-21T14:55:30.194Z,58.97
2022-11-21T14:58:35.306Z,58.76
2022-11-21T15:01:40.959Z,59.72
2022-11-21T15:04:49.412Z,59.59
2022-11-21T15:08:01.149Z,60.03
2022-11-21T15:11:18.724Z,60.25
2022-11-21T15:14:45.227Z,59.23
2022-11-21T15:18:23.870Z,59.19
2022-11-21T15:21:17.374Z,59.07
2022-11-21T15:24:42.960Z,58.55
2022-11-21T15:27:50.175Z,59.41
2022-11-21T15:31:20.534Z,60.44
2022-11-21T15:34:47.902Z,60.24
2022-11-21T15:37:50.923Z,59.80
2022-11-21T15:41:30.725Z,59.69
2022-11-21T15:44:34.433Z,60.44
2022-11-21T15:47:38.037Z,59.63
2022-11-21T15:50:41.717Z,59.23
2022-11-21T15:53:45.489Z,58.84
2022-11-21T15:56:49.710Z,58.70
2022-11-21T15:59:53.754Z,59.68
2022-11-21T16:02:57.769Z,61.06
2022-11-21T16:06:01.477Z,60.82
2022-11-21T16:09:05.606Z,60.23
2022-11-21T16:12:10.358Z,60.67
2022-11-21T16:15:13.893Z,61.00
2022-11-21T16:18:17.840Z,60.08
2022-11-21T16:21:21.612Z,58.81
2022-11-21T16:24:25.688Z,59.82
2022-11-21T16:27:29.265Z,57.59
2022-11-21T16:30:33.179Z,59.44
2022-11-21T16:33:40.476Z,57.97
2022-11-21T16:36:44.483Z,57.00
2022-11-21T16:39:52.675Z,57.93
2022-11-21T16:43:09.751Z,57.90
2022-11-21T16:46:13.836Z,57.44
2022-11-21T16:49:16.912Z,57.41
2022-11-21T16:52:20.064Z,58.01
2022-11-21T16:55:24.419Z,58.39
2022-11-21T16:58:27.730Z,58.82
2022-11-21T17:01:31.879Z,58.93
2022-11-21T17:04:37.730Z,59.14
2022-11-21T17:07:40.888Z,59.09
2022-11-21T17:10:44.624Z,59.23
2022-11-21T17:13:49.402Z,59.50
2022-11-21T17:16:52.985Z,59.79
2022-11-21T17:19:56.646Z,59.52
2022-11-21T17:23:01.706Z,59.00
2022-11-21T17:26:11.350Z,58.59
2022-11-21T17:29:15.207Z,57.94
2022-11-21T17:32:19.592Z,57.69
2022-11-21T17:35:22.792Z,57.44
2022-11-21T17:38:26.378Z,57.75
2022-11-21T17:41:30.408Z,57.79
2022-11-21T17:44:34.322Z,57.87
2022-11-21T17:47:38.451Z,57.94
2022-11-21T17:50:41.884Z,57.95
2022-11-21T17:53:47.350Z,58.04
2022-11-21T17:56:57.027Z,58.29
2022-11-21T18:00:00.640Z,58.27
2022-11-21T18:03:05.066Z,57.96
2022-11-21T18:06:12.685Z,58.09
2022-11-21T18:09:17.890Z,58.05
2022-11-21T18:12:22.327Z,58.85
2022-11-21T18:15:26.825Z,59.39
2022-11-21T18:18:30.245Z,59.77
2022-11-21T18:21:37.211Z,60.29
2022-11-21T18:24:41.180Z,60.19
2022-11-21T18:27:51.837Z,60.18
2022-11-21T18:31:19.552Z,60.13
2022-11-21T18:34:22.680Z,59.84
2022-11-21T18:37:26.593Z,60.11
2022-11-21T18:40:30.811Z,59.72
2022-11-21T18:43:34.395Z,59.74
2022-11-21T18:46:41.897Z,59.60
2022-11-21T18:49:45.503Z,59.40
2022-11-21T18:52:48.629Z,60.15
2022-11-21T18:55:51.789Z,60.56
2022-11-21T18:58:58.887Z,60.51
2022-11-21T19:02:03.239Z,60.80
2022-11-21T19:05:07.211Z,60.82
2022-11-21T19:08:11.450Z,60.41
2022-11-21T19:11:16.381Z,60.32
2022-11-21T19:14:20.610Z,60.36
2022-11-21T19:17:24.208Z,60.21
2022-11-21T19:20:27.685Z,60.11
2022-11-21T19:23:31.876Z,60.08
2022-11-21T19:26:35.641Z,59.87
2022-11-21T19:29:39.422Z,59.55
2022-11-21T19:32:43.497Z,59.92
2022-11-21T19:35:47.256Z,59.74
2022-11-21T19:38:52.393Z,59.58
2022-11-21T19:41:56.376Z,59.91
2022-11-21T19:45:00.294Z,60.25
2022-11-21T19:48:03.580Z,60.30
2022-11-21T19:51:07.712Z,60.70
2022-11-21T19:54:13.267Z,61.10
2022-11-21T19:57:17.236Z,61.30
2022-11-21T20:00:23.091Z,61.73
2022-11-21T20:03:26.546Z,61.76
2022-11-21T20:06:38.909Z,61.72
2022-11-21T20:09:43.397Z,61.97
2022-11-21T20:12:46.969Z,62.67
2022-11-21T20:15:50.523Z,62.76
2022-11-21T20:18:56.213Z,62.71
2022-11-21T20:21:59.400Z,62.93
2022-11-21T20:25:03.172Z,63.35
2022-11-21T20:28:11.515Z,63.72
2022-11-21T20:31:20.466Z,64.12
2022-11-21T20:34:24.625Z,64.25
2022-11-21T20:37:27.960Z,64.46
2022-11-21T20:40:30.948Z,64.71
2022-11-21T20:44:10.545Z,64.94
2022-11-21T20:46:58.437Z,65.22
2022-11-21T20:50:02.528Z,65.50
2022-11-21T20:53:50.991Z,65.80
2022-11-21T20:56:32.395Z,66.02
2022-11-21T20:59:35.500Z,66.63
2022-11-21T21:02:39.271Z,66.94
2022-11-21T21:05:42.478Z,66.42
2022-11-21T21:08:51.268Z,65.64
2022-11-21T21:11:54.590Z,65.62
2022-11-21T21:14:58.225Z,65.45
2022-11-21T21:18:02.656Z,64.72
2022-11-21T21:21:16.818Z,64.17
2022-11-21T21:24:21.289Z,65.04
2022-11-21T21:27:24.725Z,65.42
2022-11-21T21:30:28.283Z,65.48
2022-11-21T21:33:32.050Z,65.48
2022-11-21T21:36:35.326Z,65.35
2022-11-21T21:39:38.974Z,64.93
2022-11-21T21:42:42.398Z,65.08
2022-11-21T21:45:46.473Z,65.73
2022-11-21T21:48:53.794Z,65.03
2022-11-21T21:51:57.250Z,64.94
2022-11-21T21:55:01.035Z,64.25
2022-11-21T21:58:04.679Z,64.66
2022-11-21T22:01:12.717Z,65.21
2022-11-21T22:04:16.570Z,65.82
2022-11-21T22:07:20.501Z,65.42
2022-11-21T22:10:24.224Z,66.27
2022-11-21T22:13:30.205Z,66.92
2022-11-21T22:16:34.594Z,66.98
2022-11-21T22:19:37.612Z,66.77
2022-11-21T22:22:40.724Z,66.87
2022-11-21T22:25:43.703Z,67.06
2022-11-21T22:28:47.302Z,67.16
2022-11-21T22:31:51.544Z,67.52
2022-11-21T22:34:54.747Z,67.49
2022-11-21T22:37:58.490Z,67.04
2022-11-21T22:41:03.179Z,66.60
2022-11-21T22:44:07.166Z,66.57
2022-11-21T22:47:10.697Z,67.01
2022-11-21T22:50:15.097Z,66.98
2022-11-21T22:53:23.247Z,67.79
2022-11-21T22:56:28.356Z,67.99
2022-11-21T22:59:31.684Z,67.92
2022-11-21T23:02:36.049Z,67.83
2022-11-21T23:05:39.339Z,67.75
2022-11-21T23:08:42.658Z,67.93
2022-11-21T23:11:46.697Z,67.40
2022-11-21T23:14:49.701Z,66.36
2022-11-21T23:17:53.414Z,66.69
2022-11-21T23:20:56.845Z,66.58
2022-11-21T23:24:00.354Z,66.76
2022-11-21T23:27:05.019Z,66.81
2022-11-21T23:30:09.748Z,66.50
2022-11-21T23:33:13.128Z,65.91
2022-11-21T23:36:16.523Z,64.77
2022-11-21T23:39:23.378Z,65.06
2022-11-21T23:42:26.355Z,63.20
2022-11-21T23:45:29.699Z,62.75
2022-11-21T23:48:33.752Z,63.73
2022-11-21T23:51:36.618Z,64.32
2022-11-21T23:54:39.634Z,64.64
2022-11-21T23:57:46.476Z,64.63
